createdAt,value
2019-04-21T00:04:43.422Z,12.46
2019-04-21T00:10:04.017Z,12.47
2019-04-21T00:14:54.978Z,12.46
2019-04-21T00:20:05.526Z,12.38
2019-04-21T00:25:16.367Z,12.33
2019-04-21T00:30:32.867Z,12.01
2019-04-21T00:35:15.863Z,12.29
2019-04-21T00:40:46.343Z,12.28
2019-04-21T00:45:37.620Z,12.19
2019-04-21T00:51:05.409Z,12.19
2019-04-21T00:56:05.785Z,12.19
2019-04-21T01:01:05.532Z,12.18
2019-04-21T01:06:13.029Z,12.17
2019-04-21T01:11:17.840Z,12.17
2019-04-21T01:16:31.628Z,12.12
2019-04-21T01:21:14.007Z,12.09
2019-04-21T01:26:24.920Z,12.04
2019-04-21T01:31:36.270Z,12.06
2019-04-21T01:36:41.520Z,12.01
2019-04-21T01:41:50.816Z,11.97
2019-04-21T01:46:51.897Z,11.92
2019-04-21T01:52:08.890Z,11.91
2019-04-21T01:57:17.793Z,11.93
2019-04-21T02:02:26.635Z,11.87
2019-04-21T02:07:26.893Z,11.81
2019-04-21T02:12:42.777Z,11.77
2019-04-21T02:17:42.123Z,11.75
2019-04-21T02:23:07.364Z,11.77
2019-04-21T02:28:01.235Z,11.70
2019-04-21T02:33:08.740Z,11.61
2019-04-21T02:38:17.448Z,11.57
2019-04-21T02:48:32.937Z,11.51
2019-04-21T02:53:39.130Z,11.48
2019-04-21T02:58:59.438Z,11.43
2019-04-21T03:04:24.745Z,11.45
2019-04-21T03:09:24.092Z,11.42
2019-04-21T03:14:40.963Z,11.38
2019-04-21T03:19:46.193Z,11.27
2019-04-21T03:24:53.934Z,11.22
2019-04-21T03:29:48.335Z,11.18
2019-04-21T03:35:25.923Z,11.05
2019-04-21T03:39:59.766Z,10.99
2019-04-21T03:45:03.775Z,10.98
2019-04-21T03:50:12.793Z,10.98
2019-04-21T03:55:51.383Z,10.92
2019-04-21T04:01:05.836Z,10.91
2019-04-21T04:06:49.269Z,10.87
2019-04-21T04:11:39.763Z,10.88
2019-04-21T04:16:37.525Z,10.84
2019-04-21T04:21:51.107Z,10.84
2019-04-21T04:26:57.008Z,10.81
2019-04-21T04:31:47.620Z,10.82
2019-04-21T04:37:26.225Z,10.86
2019-04-21T04:42:21.685Z,10.86
2019-04-21T04:47:37.292Z,11.14
2019-04-21T04:52:32.771Z,11.09
2019-04-21T05:02:40.105Z,11.03
2019-04-21T05:07:51.359Z,10.89
2019-04-21T05:12:51.201Z,11.13
2019-04-21T05:17:50.945Z,11.17
2019-04-21T05:22:53.295Z,11.28
2019-04-21T05:27:52.569Z,11.33
2019-04-21T05:33:27.521Z,11.51
2019-04-21T05:38:34.601Z,11.47
2019-04-21T05:43:38.785Z,11.66
2019-04-21T05:48:55.835Z,11.81
2019-04-21T05:54:10.918Z,11.97
2019-04-21T05:59:10.286Z,12.03
2019-04-21T06:04:26.267Z,12.22
2019-04-21T06:09:22.528Z,12.47
2019-04-21T06:14:30.830Z,12.52
2019-04-21T06:19:36.972Z,12.61
2019-04-21T06:24:45.550Z,12.80
2019-04-21T06:29:46.516Z,12.95
2019-04-21T06:35:07.209Z,13.15
2019-04-21T06:40:12.717Z,13.15
2019-04-21T06:45:06.003Z,13.44
2019-04-21T06:50:09.682Z,13.65
2019-04-21T06:55:15.276Z,13.77
2019-04-21T07:00:18.435Z,13.90
2019-04-21T07:05:30.768Z,14.11
2019-04-21T07:10:31.769Z,14.34
2019-04-21T07:15:37.038Z,14.46
2019-04-21T07:20:45.941Z,14.73
2019-04-21T07:25:54.801Z,14.92
2019-04-21T07:31:00.685Z,14.92
2019-04-21T07:36:01.332Z,15.08
2019-04-21T07:40:59.654Z,15.29
2019-04-21T07:46:09.011Z,15.55
2019-04-21T07:51:47.995Z,15.33
2019-04-21T07:56:33.262Z,15.70
2019-04-21T08:01:55.174Z,15.83
2019-04-21T08:06:58.188Z,15.97
2019-04-21T08:11:57.331Z,16.12
2019-04-21T08:17:12.377Z,16.22
2019-04-21T08:22:20.223Z,16.37
2019-04-21T08:27:32.441Z,16.27
2019-04-21T08:32:36.228Z,16.34
2019-04-21T08:37:34.178Z,16.46
2019-04-21T08:42:38.648Z,16.62
2019-04-21T08:47:45.836Z,16.84
2019-04-21T09:03:17.956Z,17.15
2019-04-21T09:08:20.096Z,17.13
2019-04-21T09:13:24.058Z,17.19
2019-04-21T09:18:26.874Z,17.13
2019-04-21T09:23:38.218Z,17.12
2019-04-21T09:28:39.439Z,17.39
2019-04-21T09:33:37.691Z,17.49
2019-04-21T09:38:41.561Z,17.53
2019-04-21T09:43:48.414Z,17.60
2019-04-21T09:48:55.651Z,17.64
2019-04-21T09:54:01.954Z,17.61
2019-04-21T09:59:11.319Z,17.92
2019-04-21T10:04:07.685Z,18.01
2019-04-21T10:09:14.849Z,18.00
2019-04-21T10:14:17.925Z,18.32
2019-04-21T10:19:23.306Z,18.58
2019-04-21T10:24:28.507Z,18.74
2019-04-21T10:29:34.605Z,18.93
2019-04-21T10:34:39.038Z,19.41
2019-04-21T10:39:43.387Z,20.10
2019-04-21T10:44:47.727Z,20.86
2019-04-21T10:49:52.825Z,20.86
2019-04-21T10:55:20.950Z,21.60
2019-04-21T11:00:04.468Z,22.70
2019-04-21T11:05:09.512Z,23.66
2019-04-21T11:10:14.392Z,24.76
2019-04-21T11:15:19.040Z,24.85
2019-04-21T11:20:24.614Z,25.34
2019-04-21T11:25:30.419Z,26.14
2019-04-21T11:30:35.787Z,27.13
2019-04-21T11:35:41.295Z,27.67
2019-04-21T11:40:47.556Z,27.50
2019-04-21T11:45:52.587Z,28.02
2019-04-21T11:50:57.508Z,26.96
2019-04-21T11:56:02.798Z,28.86
2019-04-21T12:01:07.697Z,28.46
2019-04-21T12:06:13.261Z,28.16
2019-04-21T12:11:17.820Z,28.10
2019-04-21T12:16:23.222Z,28.89
2019-04-21T12:21:32.009Z,29.34
2019-04-21T12:26:33.870Z,29.07
2019-04-21T12:31:57.252Z,29.06
2019-04-21T12:37:01.499Z,30.06
2019-04-21T12:42:06.736Z,30.77
2019-04-21T12:47:12.014Z,30.34
2019-04-21T12:52:17.631Z,28.63
2019-04-21T12:57:23.325Z,28.16
2019-04-21T13:02:27.614Z,29.88
2019-04-21T13:07:33.143Z,31.18
2019-04-21T13:12:37.952Z,31.58
2019-04-21T13:17:44.465Z,30.78
2019-04-21T13:22:48.259Z,30.86
2019-04-21T13:27:52.454Z,30.97
2019-04-21T13:32:58.701Z,31.46
2019-04-21T13:38:02.801Z,31.44
2019-04-21T13:43:08.700Z,30.84
2019-04-21T13:48:14.686Z,30.24
2019-04-21T13:53:18.965Z,30.17
2019-04-21T13:58:24.208Z,31.77
2019-04-21T14:03:29.222Z,32.07
2019-04-21T14:08:33.647Z,31.08
2019-04-21T14:13:38.533Z,31.61
2019-04-21T14:18:42.925Z,31.62
2019-04-21T14:23:49.290Z,31.10
2019-04-21T14:28:53.109Z,31.96
2019-04-21T14:33:58.090Z,29.76
2019-04-21T14:39:04.927Z,30.33
2019-04-21T14:44:09.345Z,30.18
2019-04-21T14:49:19.433Z,30.45
2019-04-21T14:54:42.625Z,30.36
2019-04-21T14:59:46.986Z,30.31
2019-04-21T15:04:51.546Z,30.64
2019-04-21T15:10:04.635Z,29.67
2019-04-21T15:15:02.239Z,31.30
2019-04-21T15:20:11.230Z,30.86
2019-04-21T15:25:14.190Z,29.62
2019-04-21T15:30:18.721Z,28.85
2019-04-21T15:35:23.011Z,27.15
2019-04-21T15:40:37.452Z,26.45
2019-04-21T15:45:33.128Z,25.69
2019-04-21T15:50:37.829Z,25.02
2019-04-21T15:56:02.460Z,24.57
2019-04-21T16:01:22.753Z,24.48
2019-04-21T16:06:27.752Z,23.73
2019-04-21T16:11:33.380Z,23.44
2019-04-21T16:16:39.035Z,23.21
2019-04-21T16:21:46.283Z,23.06
2019-04-21T16:26:50.701Z,23.07
2019-04-21T16:31:55.253Z,23.00
2019-04-21T16:36:59.550Z,22.95
2019-04-21T16:42:03.719Z,22.61
2019-04-21T16:47:07.950Z,22.70
2019-04-21T16:52:25.888Z,22.78
2019-04-21T16:57:43.845Z,22.54
2019-04-21T17:02:48.361Z,22.56
2019-04-21T17:07:52.939Z,22.48
2019-04-21T17:12:57.716Z,22.19
2019-04-21T17:18:20.257Z,21.73
2019-04-21T17:23:09.402Z,21.47
2019-04-21T17:28:14.202Z,21.38
2019-04-21T17:33:23.303Z,21.19
2019-04-21T17:38:25.962Z,21.13
2019-04-21T17:43:31.862Z,20.75
2019-04-21T17:48:36.676Z,20.65
2019-04-21T17:53:55.331Z,20.48
2019-04-21T17:59:23.669Z,20.43
2019-04-21T18:04:27.113Z,20.07
2019-04-21T18:09:37.423Z,19.96
2019-04-21T18:14:16.206Z,19.75
2019-04-21T18:19:27.910Z,19.75
2019-04-21T18:24:41.138Z,19.54
2019-04-21T18:29:34.330Z,19.54
2019-04-21T18:35:01.502Z,19.42
2019-04-21T18:40:09.594Z,19.24
2019-04-21T18:50:47.735Z,18.88
2019-04-21T18:55:52.655Z,18.88
2019-04-21T19:01:03.228Z,18.90
2019-04-21T19:06:08.135Z,18.67
2019-04-21T19:11:25.184Z,18.60
2019-04-21T19:16:38.197Z,18.50
2019-04-21T19:21:31.167Z,18.45
2019-04-21T19:31:49.663Z,18.21
2019-04-21T19:36:36.966Z,18.15
2019-04-21T19:41:56.184Z,18.07
2019-04-21T19:47:04.137Z,17.92
2019-04-21T19:52:01.834Z,17.83
2019-04-21T19:57:00.859Z,17.71
2019-04-21T20:02:06.796Z,17.62
2019-04-21T20:07:25.698Z,17.49
2019-04-21T20:12:39.931Z,17.41
2019-04-21T20:17:36.443Z,17.28
2019-04-21T20:22:32.700Z,17.15
2019-04-21T20:27:46.903Z,17.05
2019-04-21T20:33:14.160Z,16.91
2019-04-21T20:38:04.792Z,16.78
2019-04-21T20:43:11.512Z,16.70
2019-04-21T20:48:10.860Z,16.60
2019-04-21T20:53:24.931Z,16.46
2019-04-21T20:58:28.084Z,16.38
2019-04-21T21:03:37.238Z,16.18
2019-04-21T21:08:40.093Z,16.18
2019-04-21T21:13:50.791Z,16.08
2019-04-21T21:23:58.855Z,15.95
2019-04-21T21:29:00.219Z,15.85
2019-04-21T21:34:16.554Z,15.79
2019-04-21T21:39:18.532Z,15.76
2019-04-21T21:44:09.208Z,15.73
2019-04-21T21:49:27.885Z,15.69
2019-04-21T21:54:16.172Z,15.69
2019-04-21T21:59:24.324Z,15.55
2019-04-21T22:04:30.373Z,15.41
2019-04-21T22:09:32.419Z,15.42
2019-04-21T22:14:41.491Z,15.29
2019-04-21T22:20:05.375Z,15.22
2019-04-21T22:24:58.781Z,15.17
2019-04-21T22:29:59.427Z,15.16
2019-04-21T22:35:05.283Z,14.99
2019-04-21T22:40:16.669Z,14.87
2019-04-21T22:45:15.478Z,14.79
2019-04-21T22:50:30.575Z,14.57
2019-04-21T22:55:35.355Z,14.61
2019-04-21T23:00:46.013Z,14.54
2019-04-21T23:05:50.022Z,14.39
2019-04-21T23:10:59.862Z,14.32
2019-04-21T23:16:01.445Z,14.27
2019-04-21T23:21:16.334Z,14.24
2019-04-21T23:26:32.822Z,14.18
2019-04-21T23:31:38.325Z,14.12
2019-04-21T23:36:28.204Z,14.09
2019-04-21T23:41:38.819Z,14.05
2019-04-21T23:46:37.043Z,13.97
2019-04-21T23:51:47.720Z,13.88
2019-04-21T23:56:47.863Z,13.86
